createdAt,value
2023-02-16T00:01:41.154Z,155.63
2023-02-16T00:04:19.710Z,164.57
2023-02-16T00:06:50.722Z,163.98
2023-02-16T00:09:21.942Z,146.50
2023-02-16T00:12:05.568Z,166.30
2023-02-16T00:14:38.920Z,141.60
2023-02-16T00:17:14.717Z,145.07
2023-02-16T00:19:45.293Z,144.90
2023-02-16T00:22:15.728Z,154.60
2023-02-16T00:24:46.123Z,144.73
2023-02-16T00:27:19.320Z,159.20
2023-02-16T00:29:50.002Z,153.50
2023-02-16T00:32:23.323Z,147.95
2023-02-16T00:34:53.756Z,142.95
2023-02-16T00:37:25.403Z,145.32
2023-02-16T00:39:56.101Z,156.95
2023-02-16T00:42:32.533Z,147.38
2023-02-16T00:45:04.663Z,140.68
2023-02-16T00:47:40.553Z,141.00
2023-02-16T00:50:19.235Z,155.30
2023-02-16T00:52:50.619Z,131.77
2023-02-16T00:55:23.765Z,146.55
2023-02-16T00:57:57.307Z,132.13
2023-02-16T01:00:35.096Z,140.05
2023-02-16T01:03:13.752Z,140.45
2023-02-16T01:05:44.423Z,141.32
2023-02-16T01:08:29.101Z,141.07
2023-02-16T01:11:13.317Z,158.75
2023-02-16T01:13:49.650Z,157.30
2023-02-16T01:16:22.458Z,151.88
2023-02-16T01:18:56.796Z,137.88
2023-02-16T01:21:27.515Z,159.88
2023-02-16T01:23:57.883Z,159.15
2023-02-16T01:26:28.554Z,154.90
2023-02-16T01:28:59.278Z,173.95
2023-02-16T01:31:29.820Z,152.13
2023-02-16T01:34:03.159Z,166.98
2023-02-16T01:36:37.916Z,164.18
2023-02-16T01:39:11.288Z,181.93
2023-02-16T01:41:52.776Z,175.55
2023-02-16T01:44:28.247Z,170.75
2023-02-16T01:47:07.197Z,193.82
2023-02-16T01:49:40.483Z,196.05
2023-02-16T01:52:19.905Z,188.93
2023-02-16T01:54:58.799Z,207.27
2023-02-16T01:57:37.338Z,201.77
2023-02-16T02:00:12.966Z,198.05
2023-02-16T02:02:52.609Z,209.07
2023-02-16T02:05:36.176Z,224.68
2023-02-16T02:08:19.999Z,195.73
2023-02-16T02:11:04.169Z,205.60
2023-02-16T02:13:43.668Z,213.38
2023-02-16T02:16:15.335Z,224.15
2023-02-16T02:18:46.681Z,206.98
2023-02-16T02:21:50.239Z,206.60
2023-02-16T02:24:56.404Z,200.60
2023-02-16T02:27:33.677Z,184.65
2023-02-16T02:30:30.237Z,198.70
2023-02-16T02:33:21.446Z,185.73
2023-02-16T02:35:59.446Z,189.68
2023-02-16T02:38:40.858Z,184.50
2023-02-16T02:41:21.940Z,196.95
2023-02-16T02:44:00.228Z,201.13
2023-02-16T02:46:34.562Z,182.57
2023-02-16T02:49:07.237Z,201.52
2023-02-16T02:51:40.815Z,197.65
2023-02-16T02:54:31.215Z,193.52
2023-02-16T02:57:23.047Z,199.90
2023-02-16T03:00:15.624Z,199.70
2023-02-16T03:02:49.516Z,189.50
2023-02-16T03:05:21.508Z,201.65
2023-02-16T03:07:57.563Z,186.52
2023-02-16T03:10:44.158Z,197.13
2023-02-16T03:13:20.140Z,191.50
2023-02-16T03:15:57.524Z,200.23
2023-02-16T03:18:42.549Z,209.15
2023-02-16T03:21:28.561Z,197.02
2023-02-16T03:24:13.746Z,202.05
2023-02-16T03:26:56.558Z,181.85
2023-02-16T03:29:29.820Z,191.93
2023-02-16T03:32:03.288Z,182.32
2023-02-16T03:34:35.609Z,180.68
2023-02-16T03:37:06.914Z,179.98
2023-02-16T03:39:58.042Z,188.65
2023-02-16T03:42:28.466Z,178.95
2023-02-16T03:44:58.944Z,172.35
2023-02-16T03:47:32.162Z,184.13
2023-02-16T03:50:02.502Z,181.43
2023-02-16T03:52:32.901Z,173.80
2023-02-16T03:55:03.768Z,193.00
2023-02-16T03:57:34.363Z,175.10
2023-02-16T04:00:04.820Z,173.60
2023-02-16T04:02:46.320Z,174.00
2023-02-16T04:05:16.756Z,182.80
2023-02-16T04:07:47.466Z,172.48
2023-02-16T04:10:17.977Z,174.80
2023-02-16T04:12:46.012Z,168.73
2023-02-16T04:15:25.047Z,194.70
2023-02-16T04:18:02.011Z,181.10
2023-02-16T04:23:05.822Z,177.13
2023-02-16T04:25:36.270Z,189.48
2023-02-16T04:28:07.254Z,180.85
2023-02-16T04:30:44.407Z,177.80
2023-02-16T04:33:17.614Z,183.57
2023-02-16T04:35:48.352Z,169.07
2023-02-16T04:38:19.045Z,176.43
2023-02-16T04:40:49.484Z,174.68
2023-02-16T04:43:19.914Z,183.57
2023-02-16T04:45:51.035Z,174.13
2023-02-16T04:48:24.165Z,183.98
2023-02-16T04:50:54.567Z,175.90
2023-02-16T04:53:25.555Z,185.15
2023-02-16T04:55:56.113Z,194.02
2023-02-16T04:58:26.777Z,191.70
2023-02-16T05:00:57.581Z,200.07
2023-02-16T05:03:31.026Z,173.15
2023-02-16T05:06:01.478Z,180.35
2023-02-16T05:08:34.167Z,200.27
2023-02-16T05:11:16.739Z,179.10
2023-02-16T05:13:59.312Z,189.50
2023-02-16T05:16:30.532Z,188.15
2023-02-16T05:19:04.199Z,203.55
2023-02-16T05:21:35.851Z,180.32
2023-02-16T05:24:08.685Z,191.27
2023-02-16T05:26:42.936Z,187.52
2023-02-16T05:29:13.673Z,191.43
2023-02-16T05:31:44.515Z,188.40
2023-02-16T05:34:19.959Z,173.52
2023-02-16T05:36:50.891Z,182.10
2023-02-16T05:39:21.582Z,182.80
2023-02-16T05:41:54.517Z,166.40
2023-02-16T05:44:26.509Z,170.88
2023-02-16T05:46:57.263Z,171.32
2023-02-16T05:49:30.438Z,170.65
2023-02-16T05:52:01.298Z,175.07
2023-02-16T05:54:32.293Z,183.07
2023-02-16T05:57:03.273Z,194.00
2023-02-16T05:59:34.043Z,208.13
2023-02-16T06:02:05.157Z,216.55
2023-02-16T06:04:38.674Z,258.67
2023-02-16T06:07:14.758Z,262.75
2023-02-16T06:09:45.313Z,255.63
2023-02-16T06:12:15.933Z,274.80
2023-02-16T06:14:46.530Z,262.92
2023-02-16T06:17:16.819Z,262.40
2023-02-16T06:19:50.004Z,264.15
2023-02-16T06:22:20.579Z,270.92
2023-02-16T06:24:51.189Z,262.10
2023-02-16T06:27:21.663Z,267.88
2023-02-16T06:29:52.091Z,264.67
2023-02-16T06:32:22.562Z,256.80
2023-02-16T06:34:56.031Z,280.50
2023-02-16T06:37:27.223Z,258.23
2023-02-16T06:39:57.589Z,235.85
2023-02-16T06:42:27.982Z,237.80
2023-02-16T06:44:58.403Z,210.50
2023-02-16T06:47:28.829Z,183.73
2023-02-16T06:50:02.215Z,165.80
2023-02-16T06:52:32.901Z,203.02
2023-02-16T06:55:03.247Z,206.15
2023-02-16T06:57:33.987Z,199.75
2023-02-16T07:00:05.138Z,197.20
2023-02-16T07:02:35.967Z,200.90
2023-02-16T07:05:09.425Z,189.93
2023-02-16T07:07:39.732Z,181.23
2023-02-16T07:10:11.712Z,196.90
2023-02-16T07:12:42.451Z,193.55
2023-02-16T07:15:14.357Z,199.85
2023-02-16T07:17:44.831Z,198.18
2023-02-16T07:20:18.900Z,208.35
2023-02-16T07:22:49.461Z,211.88
2023-02-16T07:25:20.157Z,200.30
2023-02-16T07:27:51.449Z,228.48
2023-02-16T07:30:22.037Z,228.68
2023-02-16T07:32:52.928Z,300.55
2023-02-16T07:35:26.328Z,346.50
2023-02-16T07:37:56.810Z,351.40
2023-02-16T07:40:28.019Z,370.23
2023-02-16T07:42:58.663Z,297.98
2023-02-16T07:45:33.086Z,274.67
2023-02-16T07:48:04.008Z,237.65
2023-02-16T07:50:37.254Z,237.25
2023-02-16T07:53:07.982Z,229.57
2023-02-16T07:55:43.008Z,247.50
2023-02-16T07:58:27.782Z,236.02
2023-02-16T08:01:09.845Z,251.40
2023-02-16T08:03:40.747Z,228.20
2023-02-16T08:06:14.713Z,259.58
2023-02-16T08:08:45.817Z,253.95
2023-02-16T08:11:18.841Z,239.35
2023-02-16T08:13:50.229Z,213.97
2023-02-16T08:16:23.873Z,210.93
2023-02-16T08:18:55.276Z,211.27
2023-02-16T08:21:31.388Z,221.23
2023-02-16T08:24:03.455Z,203.38
2023-02-16T08:26:37.531Z,191.30
2023-02-16T08:29:10.774Z,194.90
2023-02-16T08:31:42.063Z,188.75
2023-02-16T08:34:14.207Z,238.77
2023-02-16T08:36:49.522Z,195.65
2023-02-16T08:39:23.191Z,176.20
2023-02-16T08:41:54.334Z,175.43
2023-02-16T08:44:27.415Z,175.88
2023-02-16T08:47:03.272Z,209.23
2023-02-16T08:49:34.010Z,154.43
2023-02-16T08:52:07.781Z,132.00
2023-02-16T08:57:08.768Z,125.75
2023-02-16T08:59:39.255Z,120.65
2023-02-16T09:02:09.777Z,112.00
2023-02-16T09:04:40.460Z,111.50
2023-02-16T09:07:14.208Z,109.43
2023-02-16T09:09:44.824Z,115.60
2023-02-16T09:12:15.258Z,103.15
2023-02-16T09:14:46.112Z,94.75
2023-02-16T09:17:16.872Z,100.57
2023-02-16T09:19:48.563Z,91.43
2023-02-16T09:22:22.276Z,98.93
2023-02-16T09:24:52.638Z,90.65
2023-02-16T09:27:23.061Z,100.28
2023-02-16T09:29:53.796Z,104.05
2023-02-16T09:32:24.524Z,97.90
2023-02-16T09:34:55.697Z,98.72
2023-02-16T09:37:30.459Z,101.72
2023-02-16T09:40:01.236Z,100.05
2023-02-16T09:42:38.424Z,109.53
2023-02-16T09:45:14.362Z,103.78
2023-02-16T09:47:48.360Z,97.45
2023-02-16T09:53:22.955Z,99.43
2023-02-16T09:56:04.694Z,95.80
2023-02-16T09:58:45.485Z,94.55
2023-02-16T10:01:25.184Z,95.95
2023-02-16T10:04:06.179Z,86.82
2023-02-16T10:06:58.812Z,77.63
2023-02-16T10:09:33.759Z,89.15
2023-02-16T10:12:09.478Z,88.10
2023-02-16T10:14:47.683Z,84.35
2023-02-16T10:17:30.252Z,88.88
2023-02-16T10:20:07.618Z,90.30
2023-02-16T10:22:45.956Z,92.05
2023-02-16T10:25:23.739Z,86.50
2023-02-16T10:28:05.657Z,92.20
2023-02-16T10:30:36.372Z,181.15
2023-02-16T10:33:18.005Z,86.75
2023-02-16T10:35:50.895Z,93.90
2023-02-16T10:38:32.548Z,91.10
2023-02-16T10:41:16.549Z,83.78
2023-02-16T10:43:52.389Z,85.53
2023-02-16T10:46:26.941Z,99.20
2023-02-16T10:48:58.837Z,81.53
2023-02-16T10:51:31.870Z,79.85
2023-02-16T10:54:05.677Z,71.33
2023-02-16T10:56:54.860Z,69.00
2023-02-16T10:59:27.053Z,78.93
2023-02-16T11:02:01.066Z,85.90
2023-02-16T11:04:38.247Z,80.00
2023-02-16T11:07:11.493Z,76.75
2023-02-16T11:09:44.922Z,76.13
2023-02-16T11:12:34.409Z,76.30
2023-02-16T11:15:09.158Z,79.40
2023-02-16T11:17:53.034Z,80.03
2023-02-16T11:20:33.251Z,81.00
2023-02-16T11:23:25.014Z,78.97
2023-02-16T11:26:01.223Z,65.15
2023-02-16T11:28:37.757Z,69.78
2023-02-16T11:31:19.684Z,77.18
2023-02-16T11:34:04.879Z,72.72
2023-02-16T11:36:40.778Z,67.50
2023-02-16T11:39:20.540Z,74.63
2023-02-16T11:41:54.654Z,72.63
2023-02-16T11:44:33.446Z,69.15
2023-02-16T11:47:08.628Z,69.43
2023-02-16T11:49:41.681Z,77.32
2023-02-16T11:52:27.934Z,59.27
2023-02-16T11:55:02.555Z,61.42
2023-02-16T11:57:36.392Z,55.53
2023-02-16T12:00:20.035Z,56.90
2023-02-16T12:03:22.030Z,54.28
2023-02-16T12:06:21.099Z,60.90
2023-02-16T12:09:06.757Z,55.10
2023-02-16T12:11:46.696Z,74.28
2023-02-16T12:14:28.176Z,54.17
2023-02-16T12:17:11.066Z,63.28
2023-02-16T12:19:45.838Z,56.08
2023-02-16T12:22:34.154Z,53.80
2023-02-16T12:25:25.900Z,53.20
2023-02-16T12:28:03.136Z,53.13
2023-02-16T12:30:48.968Z,54.78
2023-02-16T12:33:34.198Z,53.22
2023-02-16T12:36:27.131Z,61.53
2023-02-16T12:39:07.424Z,95.07
2023-02-16T12:41:50.759Z,60.28
2023-02-16T12:44:28.865Z,77.05
2023-02-16T12:47:05.716Z,66.13
2023-02-16T12:49:49.534Z,86.13
2023-02-16T12:52:32.582Z,126.75
2023-02-16T12:55:15.526Z,77.57
2023-02-16T12:57:53.502Z,60.00
2023-02-16T13:00:29.483Z,53.83
2023-02-16T13:03:08.085Z,56.13
2023-02-16T13:05:43.033Z,51.90
2023-02-16T13:08:21.708Z,49.15
2023-02-16T13:10:59.925Z,67.75
2023-02-16T13:13:33.892Z,88.72
2023-02-16T13:16:23.887Z,97.47
2023-02-16T13:19:00.046Z,65.68
2023-02-16T13:22:05.115Z,204.95
2023-02-16T13:24:47.139Z,118.65
2023-02-16T13:27:33.225Z,53.22
2023-02-16T13:30:34.506Z,56.47
2023-02-16T13:33:25.939Z,55.67
2023-02-16T13:36:12.292Z,55.78
2023-02-16T13:39:15.418Z,85.25
2023-02-16T13:42:10.382Z,70.70
2023-02-16T13:44:44.934Z,81.55
2023-02-16T13:47:22.405Z,63.83
2023-02-16T13:49:59.168Z,64.25
2023-02-16T13:52:35.349Z,65.85
2023-02-16T13:55:08.912Z,69.20
2023-02-16T13:58:04.970Z,65.65
2023-02-16T14:00:40.686Z,59.13
2023-02-16T14:03:37.905Z,67.28
2023-02-16T14:06:37.660Z,63.85
2023-02-16T14:09:40.140Z,61.72
2023-02-16T14:12:21.499Z,70.18
2023-02-16T14:15:06.067Z,65.38
2023-02-16T14:17:38.853Z,76.13
2023-02-16T14:20:30.460Z,74.05
2023-02-16T14:23:04.010Z,71.40
2023-02-16T14:25:39.298Z,102.13
2023-02-16T14:28:45.155Z,89.47
2023-02-16T14:31:20.311Z,64.30
2023-02-16T14:33:59.358Z,79.72
2023-02-16T14:36:30.860Z,65.78
2023-02-16T14:39:05.005Z,63.65
2023-02-16T14:44:33.312Z,77.55
2023-02-16T14:47:15.297Z,72.93
2023-02-16T14:50:06.992Z,70.55
2023-02-16T14:53:04.352Z,66.65
2023-02-16T14:56:14.980Z,66.30
2023-02-16T14:58:55.418Z,70.22
2023-02-16T15:01:27.418Z,78.28
2023-02-16T15:03:59.867Z,74.50
2023-02-16T15:06:36.116Z,66.07
2023-02-16T15:09:10.280Z,69.10
2023-02-16T15:12:03.679Z,80.63
2023-02-16T15:14:39.359Z,68.40
2023-02-16T15:17:11.065Z,71.35
2023-02-16T15:19:41.739Z,75.75
2023-02-16T15:22:14.453Z,75.20
2023-02-16T15:24:44.757Z,118.03
2023-02-16T15:27:27.660Z,120.35
2023-02-16T15:30:10.492Z,119.45
2023-02-16T15:32:41.818Z,157.50
2023-02-16T15:35:25.168Z,126.57
2023-02-16T15:38:04.146Z,107.30
2023-02-16T15:40:35.616Z,86.93
2023-02-16T15:43:22.651Z,84.72
2023-02-16T15:45:58.375Z,79.88
2023-02-16T15:48:32.826Z,81.97
2023-02-16T15:51:13.455Z,118.25
2023-02-16T15:53:51.272Z,157.30
2023-02-16T15:56:34.390Z,119.97
2023-02-16T15:59:20.554Z,103.97
2023-02-16T16:01:51.810Z,87.20
2023-02-16T16:04:25.089Z,87.60
2023-02-16T16:06:56.618Z,92.32
2023-02-16T16:09:29.807Z,91.57
2023-02-16T16:12:01.958Z,87.05
2023-02-16T16:14:39.294Z,97.22
2023-02-16T16:17:14.024Z,79.63
2023-02-16T16:19:45.097Z,83.00
2023-02-16T16:22:33.490Z,87.13
2023-02-16T16:25:06.288Z,90.65
2023-02-16T16:27:39.838Z,87.80
2023-02-16T16:30:37.639Z,78.15
2023-02-16T16:33:12.856Z,81.88
2023-02-16T16:35:46.460Z,93.80
2023-02-16T16:38:28.065Z,88.80
2023-02-16T16:41:01.349Z,90.22
2023-02-16T16:43:33.584Z,94.70
2023-02-16T16:46:23.611Z,99.70
2023-02-16T16:48:57.305Z,103.95
2023-02-16T16:51:42.021Z,116.95
2023-02-16T16:54:15.217Z,108.68
2023-02-16T16:56:45.779Z,101.85
2023-02-16T16:59:16.748Z,105.10
2023-02-16T17:01:53.195Z,116.40
2023-02-16T17:04:24.139Z,101.65
2023-02-16T17:07:10.467Z,109.65
2023-02-16T17:09:46.072Z,108.20
2023-02-16T17:12:21.925Z,104.22
2023-02-16T17:15:04.287Z,122.80
2023-02-16T17:17:59.524Z,137.73
2023-02-16T17:20:33.443Z,109.35
2023-02-16T17:23:13.740Z,111.40
2023-02-16T17:25:44.553Z,117.72
2023-02-16T17:28:18.601Z,133.45
2023-02-16T17:30:54.956Z,180.93
2023-02-16T17:33:30.193Z,184.52
2023-02-16T17:36:06.196Z,144.95
2023-02-16T17:38:37.395Z,128.85
2023-02-16T17:41:11.022Z,145.00
2023-02-16T17:43:43.986Z,109.88
2023-02-16T17:46:15.112Z,107.65
2023-02-16T17:48:50.282Z,114.00
2023-02-16T17:51:23.109Z,105.57
2023-02-16T17:53:54.040Z,124.47
2023-02-16T17:56:27.190Z,115.10
2023-02-16T17:58:57.830Z,145.68
2023-02-16T18:01:28.337Z,121.72
2023-02-16T18:04:03.386Z,136.25
2023-02-16T18:06:34.448Z,141.90
2023-02-16T18:09:05.211Z,138.60
2023-02-16T18:11:35.677Z,116.88
2023-02-16T18:14:06.095Z,116.60
2023-02-16T18:16:37.101Z,116.82
2023-02-16T18:19:11.044Z,113.68
2023-02-16T18:21:41.580Z,125.85
2023-02-16T18:24:12.802Z,128.07
2023-02-16T18:26:44.862Z,135.02
2023-02-16T18:29:16.255Z,134.38
2023-02-16T18:31:47.750Z,145.63
2023-02-16T18:34:21.225Z,162.32
2023-02-16T18:36:56.830Z,176.98
2023-02-16T18:39:30.885Z,182.45
2023-02-16T18:42:03.866Z,173.40
2023-02-16T18:44:37.883Z,162.67
2023-02-16T18:47:12.219Z,173.18
2023-02-16T18:49:49.581Z,146.82
2023-02-16T18:52:20.232Z,146.52
2023-02-16T18:54:50.668Z,144.05
2023-02-16T18:57:23.825Z,141.05
2023-02-16T18:59:54.685Z,145.23
2023-02-16T19:02:24.894Z,137.18
2023-02-16T19:04:58.484Z,128.23
2023-02-16T19:07:29.205Z,127.80
2023-02-16T19:09:59.494Z,141.68
2023-02-16T19:12:30.999Z,196.23
2023-02-16T19:15:01.711Z,178.90
2023-02-16T19:17:32.188Z,176.25
2023-02-16T19:20:05.969Z,195.50
2023-02-16T19:25:18.001Z,172.02
2023-02-16T19:27:48.729Z,183.60
2023-02-16T19:30:22.153Z,177.45
2023-02-16T19:32:52.840Z,138.90
2023-02-16T19:35:26.294Z,133.50
2023-02-16T19:37:56.995Z,129.50
2023-02-16T19:40:27.715Z,136.45
2023-02-16T19:42:58.878Z,127.78
2023-02-16T19:48:16.543Z,134.60
2023-02-16T19:50:51.369Z,121.13
2023-02-16T19:53:23.586Z,138.18
2023-02-16T19:55:56.129Z,135.23
2023-02-16T19:58:28.344Z,124.53
2023-02-16T20:01:02.318Z,158.38
2023-02-16T20:03:34.001Z,177.93
2023-02-16T20:06:16.422Z,138.50
2023-02-16T20:08:48.198Z,153.05
2023-02-16T20:11:22.273Z,132.63
2023-02-16T20:13:54.184Z,140.77
2023-02-16T20:16:27.074Z,121.72
2023-02-16T20:18:59.047Z,125.33
2023-02-16T20:21:33.660Z,135.90
2023-02-16T20:24:08.458Z,109.97
2023-02-16T20:26:42.895Z,110.32
2023-02-16T20:29:18.323Z,112.38
2023-02-16T20:31:54.279Z,115.53
2023-02-16T20:34:29.296Z,113.03
2023-02-16T20:37:04.096Z,124.40
2023-02-16T20:39:35.307Z,114.72
2023-02-16T20:42:06.517Z,122.88
2023-02-16T20:44:37.089Z,141.95
2023-02-16T20:47:08.685Z,121.47
2023-02-16T20:49:42.102Z,122.15
2023-02-16T20:52:17.042Z,113.07
2023-02-16T20:54:48.583Z,115.40
2023-02-16T20:57:26.821Z,120.07
2023-02-16T20:59:58.468Z,114.55
2023-02-16T21:02:29.327Z,116.38
2023-02-16T21:05:00.544Z,121.85
2023-02-16T21:07:35.483Z,126.60
2023-02-16T21:10:09.046Z,119.28
2023-02-16T21:12:40.724Z,123.32
2023-02-16T21:15:12.999Z,122.03
2023-02-16T21:17:43.990Z,129.55
2023-02-16T21:20:15.661Z,138.05
2023-02-16T21:22:49.184Z,135.90
2023-02-16T21:25:20.527Z,124.78
2023-02-16T21:27:51.572Z,129.40
2023-02-16T21:30:23.479Z,136.10
2023-02-16T21:32:54.671Z,141.95
2023-02-16T21:35:28.139Z,137.52
2023-02-16T21:38:01.529Z,128.90
2023-02-16T21:40:46.737Z,136.70
2023-02-16T21:43:17.779Z,134.30
2023-02-16T21:45:55.213Z,142.40
2023-02-16T21:48:38.343Z,144.00
2023-02-16T21:51:09.785Z,122.97
2023-02-16T21:53:43.613Z,121.10
2023-02-16T21:56:26.002Z,139.88
2023-02-16T21:58:56.670Z,138.32
2023-02-16T22:01:30.067Z,136.77
2023-02-16T22:04:01.877Z,142.85
2023-02-16T22:06:35.434Z,153.23
2023-02-16T22:09:11.748Z,144.75
2023-02-16T22:11:43.033Z,140.10
2023-02-16T22:14:14.879Z,130.25
2023-02-16T22:16:49.126Z,140.77
2023-02-16T22:19:21.980Z,139.55
2023-02-16T22:21:54.198Z,139.10
2023-02-16T22:24:28.953Z,149.60
2023-02-16T22:27:00.950Z,138.50
2023-02-16T22:29:31.988Z,141.68
2023-02-16T22:32:04.613Z,152.65
2023-02-16T22:34:35.852Z,138.10
2023-02-16T22:37:06.843Z,155.05
2023-02-16T22:39:43.483Z,165.40
2023-02-16T22:42:14.705Z,161.75
2023-02-16T22:44:47.117Z,156.85
2023-02-16T22:47:19.601Z,166.93
2023-02-16T22:49:52.626Z,155.50
2023-02-16T22:52:25.292Z,156.50
2023-02-16T22:55:00.312Z,146.10
2023-02-16T22:57:32.161Z,145.23
2023-02-16T23:00:03.572Z,151.57
2023-02-16T23:02:34.775Z,158.32
2023-02-16T23:05:05.987Z,153.05
2023-02-16T23:07:38.783Z,165.15
2023-02-16T23:10:14.216Z,157.00
2023-02-16T23:12:45.185Z,155.63
2023-02-16T23:15:22.302Z,158.90
2023-02-16T23:17:54.116Z,154.18
2023-02-16T23:20:27.271Z,156.57
2023-02-16T23:22:57.997Z,156.30
2023-02-16T23:25:37.967Z,149.18
2023-02-16T23:28:16.597Z,151.60
2023-02-16T23:30:57.472Z,147.10
2023-02-16T23:33:28.635Z,158.55
2023-02-16T23:35:59.521Z,155.60
2023-02-16T23:38:31.483Z,150.85
2023-02-16T23:41:08.336Z,161.50
2023-02-16T23:43:39.261Z,156.30
2023-02-16T23:46:11.176Z,162.68
2023-02-16T23:48:42.118Z,165.40
2023-02-16T23:51:13.149Z,163.00
2023-02-16T23:53:44.415Z,168.68
2023-02-16T23:56:22.598Z,162.60
2023-02-16T23:58:53.964Z,159.25
